sensor_id;sensor_type;location;lat;lon;timestamp;temperature;humidity
27803;DHT22;15182;48.174;11.562;2023-07-31T00:02:04;23.30;80.20
27803;DHT22;15182;48.174;11.562;2023-07-31T00:04:32;23.30;80.40
27803;DHT22;15182;48.174;11.562;2023-07-31T00:07:00;23.30;80.50
27803;DHT22;15182;48.174;11.562;2023-07-31T00:09:30;23.30;80.50
27803;DHT22;15182;48.174;11.562;2023-07-31T00:11:59;23.30;80.60
27803;DHT22;15182;48.174;11.562;2023-07-31T00:14:27;23.30;81.50
27803;DHT22;15182;48.174;11.562;2023-07-31T00:16:55;23.30;80.60
27803;DHT22;15182;48.174;11.562;2023-07-31T00:19:23;23.30;80.70
27803;DHT22;15182;48.174;11.562;2023-07-31T00:21:50;23.30;80.90
27803;DHT22;15182;48.174;11.562;2023-07-31T00:24:18;23.20;80.90
27803;DHT22;15182;48.174;11.562;2023-07-31T00:26:46;23.20;81.10
27803;DHT22;15182;48.174;11.562;2023-07-31T00:29:15;23.20;81.10
27803;DHT22;15182;48.174;11.562;2023-07-31T00:31:43;23.20;81.20
27803;DHT22;15182;48.174;11.562;2023-07-31T00:34:11;23.20;81.30
27803;DHT22;15182;48.174;11.562;2023-07-31T00:36:38;23.20;81.30
27803;DHT22;15182;48.174;11.562;2023-07-31T00:39:06;23.20;81.40
27803;DHT22;15182;48.174;11.562;2023-07-31T00:41:35;23.20;82.20
27803;DHT22;15182;48.174;11.562;2023-07-31T00:44:03;23.20;81.30
27803;DHT22;15182;48.174;11.562;2023-07-31T00:46:32;23.20;81.40
27803;DHT22;15182;48.174;11.562;2023-07-31T00:49:01;23.20;81.60
27803;DHT22;15182;48.174;11.562;2023-07-31T00:51:29;23.20;81.70
27803;DHT22;15182;48.174;11.562;2023-07-31T00:53:58;23.20;81.60
27803;DHT22;15182;48.174;11.562;2023-07-31T00:56:26;23.20;81.80
27803;DHT22;15182;48.174;11.562;2023-07-31T00:58:55;23.10;81.80
27803;DHT22;15182;48.174;11.562;2023-07-31T01:01:23;23.10;81.80
27803;DHT22;15182;48.174;11.562;2023-07-31T01:03:53;23.20;81.70
27803;DHT22;15182;48.174;11.562;2023-07-31T01:06:31;23.10;81.60
27803;DHT22;15182;48.174;11.562;2023-07-31T01:09:04;23.20;81.60
27803;DHT22;15182;48.174;11.562;2023-07-31T01:11:43;23.20;81.60
27803;DHT22;15182;48.174;11.562;2023-07-31T01:14:16;23.20;81.60
27803;DHT22;15182;48.174;11.562;2023-07-31T01:16:44;23.20;81.60
27803;DHT22;15182;48.174;11.562;2023-07-31T01:19:14;23.20;81.70
27803;DHT22;15182;48.174;11.562;2023-07-31T01:22:16;23.20;81.70
27803;DHT22;15182;48.174;11.562;2023-07-31T01:24:59;23.20;81.70
27803;DHT22;15182;48.174;11.562;2023-07-31T01:27:38;23.20;81.60
27803;DHT22;15182;48.174;11.562;2023-07-31T01:30:13;23.20;81.70
27803;DHT22;15182;48.174;11.562;2023-07-31T01:32:47;23.20;81.90
27803;DHT22;15182;48.174;11.562;2023-07-31T01:35:15;23.20;81.80
27803;DHT22;15182;48.174;11.562;2023-07-31T01:37:43;23.20;81.80
27803;DHT22;15182;48.174;11.562;2023-07-31T01:40:12;23.20;81.90
27803;DHT22;15182;48.174;11.562;2023-07-31T01:42:41;23.20;82.00
27803;DHT22;15182;48.174;11.562;2023-07-31T01:45:10;23.20;81.90
27803;DHT22;15182;48.174;11.562;2023-07-31T01:47:39;23.10;81.90
27803;DHT22;15182;48.174;11.562;2023-07-31T01:50:07;23.10;81.90
27803;DHT22;15182;48.174;11.562;2023-07-31T01:52:36;23.10;82.00
27803;DHT22;15182;48.174;11.562;2023-07-31T01:55:04;23.10;82.10
27803;DHT22;15182;48.174;11.562;2023-07-31T01:57:32;23.10;82.10
27803;DHT22;15182;48.174;11.562;2023-07-31T02:00:02;23.10;81.80
27803;DHT22;15182;48.174;11.562;2023-07-31T02:02:38;23.10;81.80
27803;DHT22;15182;48.174;11.562;2023-07-31T02:05:06;23.10;81.90
27803;DHT22;15182;48.174;11.562;2023-07-31T02:07:34;23.10;82.00
27803;DHT22;15182;48.174;11.562;2023-07-31T02:10:02;23.10;82.00
27803;DHT22;15182;48.174;11.562;2023-07-31T02:12:30;23.10;82.20
27803;DHT22;15182;48.174;11.562;2023-07-31T02:14:59;23.10;82.20
27803;DHT22;15182;48.174;11.562;2023-07-31T02:17:29;23.00;82.20
27803;DHT22;15182;48.174;11.562;2023-07-31T02:19:56;23.00;82.30
27803;DHT22;15182;48.174;11.562;2023-07-31T02:22:25;23.00;82.30
27803;DHT22;15182;48.174;11.562;2023-07-31T02:24:52;23.00;82.40
27803;DHT22;15182;48.174;11.562;2023-07-31T02:27:22;23.00;82.50
27803;DHT22;15182;48.174;11.562;2023-07-31T02:29:53;23.00;82.40
27803;DHT22;15182;48.174;11.562;2023-07-31T02:32:23;23.00;82.50
27803;DHT22;15182;48.174;11.562;2023-07-31T02:34:50;23.00;82.60
27803;DHT22;15182;48.174;11.562;2023-07-31T02:37:18;23.00;82.50
27803;DHT22;15182;48.174;11.562;2023-07-31T02:39:46;23.00;82.50
27803;DHT22;15182;48.174;11.562;2023-07-31T02:42:14;23.00;82.50
27803;DHT22;15182;48.174;11.562;2023-07-31T02:44:42;23.00;82.70
27803;DHT22;15182;48.174;11.562;2023-07-31T02:47:10;23.00;82.70
27803;DHT22;15182;48.174;11.562;2023-07-31T02:49:39;22.90;82.60
27803;DHT22;15182;48.174;11.562;2023-07-31T02:52:07;22.90;82.60
27803;DHT22;15182;48.174;11.562;2023-07-31T02:54:34;22.90;82.80
27803;DHT22;15182;48.174;11.562;2023-07-31T02:57:03;22.90;82.90
27803;DHT22;15182;48.174;11.562;2023-07-31T02:59:31;22.90;83.10
27803;DHT22;15182;48.174;11.562;2023-07-31T03:01:59;22.90;83.10
27803;DHT22;15182;48.174;11.562;2023-07-31T03:04:27;22.80;83.00
27803;DHT22;15182;48.174;11.562;2023-07-31T03:06:57;22.80;83.10
27803;DHT22;15182;48.174;11.562;2023-07-31T03:09:25;22.80;83.30
27803;DHT22;15182;48.174;11.562;2023-07-31T03:11:52;22.80;83.40
27803;DHT22;15182;48.174;11.562;2023-07-31T03:14:20;22.80;83.60
27803;DHT22;15182;48.174;11.562;2023-07-31T03:16:48;22.70;83.70
27803;DHT22;15182;48.174;11.562;2023-07-31T03:19:16;22.70;83.80
27803;DHT22;15182;48.174;11.562;2023-07-31T03:21:43;22.70;83.90
27803;DHT22;15182;48.174;11.562;2023-07-31T03:24:13;22.60;84.00
27803;DHT22;15182;48.174;11.562;2023-07-31T03:26:40;22.60;84.20
27803;DHT22;15182;48.174;11.562;2023-07-31T03:29:08;22.50;84.10
27803;DHT22;15182;48.174;11.562;2023-07-31T03:31:36;22.50;84.30
27803;DHT22;15182;48.174;11.562;2023-07-31T03:34:04;22.50;84.50
27803;DHT22;15182;48.174;11.562;2023-07-31T03:36:32;22.50;85.40
27803;DHT22;15182;48.174;11.562;2023-07-31T03:38:59;22.50;84.60
27803;DHT22;15182;48.174;11.562;2023-07-31T03:41:28;22.50;84.70
27803;DHT22;15182;48.174;11.562;2023-07-31T03:43:56;22.40;85.70
27803;DHT22;15182;48.174;11.562;2023-07-31T03:46:24;22.40;84.90
27803;DHT22;15182;48.174;11.562;2023-07-31T03:48:52;22.40;84.90
27803;DHT22;15182;48.174;11.562;2023-07-31T03:51:20;22.40;85.20
27803;DHT22;15182;48.174;11.562;2023-07-31T03:53:48;22.40;85.30
27803;DHT22;15182;48.174;11.562;2023-07-31T03:56:15;22.40;85.40
27803;DHT22;15182;48.174;11.562;2023-07-31T03:58:44;22.40;85.50
27803;DHT22;15182;48.174;11.562;2023-07-31T04:01:12;22.40;85.70
27803;DHT22;15182;48.174;11.562;2023-07-31T04:03:40;22.40;85.70
27803;DHT22;15182;48.174;11.562;2023-07-31T04:06:08;22.40;86.60
27803;DHT22;15182;48.174;11.562;2023-07-31T04:08:36;22.40;85.90
27803;DHT22;15182;48.174;11.562;2023-07-31T04:11:04;22.40;86.00
27803;DHT22;15182;48.174;11.562;2023-07-31T04:13:32;22.40;86.20
27803;DHT22;15182;48.174;11.562;2023-07-31T04:16:01;22.40;86.20
27803;DHT22;15182;48.174;11.562;2023-07-31T04:18:29;22.40;86.30
27803;DHT22;15182;48.174;11.562;2023-07-31T04:20:57;22.40;86.20
27803;DHT22;15182;48.174;11.562;2023-07-31T04:23:25;22.40;86.40
27803;DHT22;15182;48.174;11.562;2023-07-31T04:25:53;22.50;86.50
27803;DHT22;15182;48.174;11.562;2023-07-31T04:28:21;22.50;86.50
27803;DHT22;15182;48.174;11.562;2023-07-31T04:30:48;22.50;86.50
27803;DHT22;15182;48.174;11.562;2023-07-31T04:33:18;22.50;86.50
27803;DHT22;15182;48.174;11.562;2023-07-31T04:35:49;22.50;86.70
27803;DHT22;15182;48.174;11.562;2023-07-31T04:38:19;22.50;86.70
27803;DHT22;15182;48.174;11.562;2023-07-31T04:40:48;22.50;86.60
27803;DHT22;15182;48.174;11.562;2023-07-31T04:43:16;22.50;86.60
27803;DHT22;15182;48.174;11.562;2023-07-31T04:45:45;22.50;86.70
27803;DHT22;15182;48.174;11.562;2023-07-31T04:48:14;22.50;86.70
27803;DHT22;15182;48.174;11.562;2023-07-31T04:50:43;22.50;86.70
27803;DHT22;15182;48.174;11.562;2023-07-31T04:53:11;22.50;86.90
27803;DHT22;15182;48.174;11.562;2023-07-31T04:55:39;22.50;86.90
27803;DHT22;15182;48.174;11.562;2023-07-31T04:58:07;22.50;86.90
27803;DHT22;15182;48.174;11.562;2023-07-31T05:00:35;22.50;87.00
27803;DHT22;15182;48.174;11.562;2023-07-31T05:03:02;22.50;87.10
27803;DHT22;15182;48.174;11.562;2023-07-31T05:05:31;22.50;87.30
27803;DHT22;15182;48.174;11.562;2023-07-31T05:08:00;22.50;87.40
27803;DHT22;15182;48.174;11.562;2023-07-31T05:10:28;22.50;88.30
27803;DHT22;15182;48.174;11.562;2023-07-31T05:12:56;22.50;87.40
27803;DHT22;15182;48.174;11.562;2023-07-31T05:15:24;22.50;87.50
27803;DHT22;15182;48.174;11.562;2023-07-31T05:17:51;22.50;87.60
27803;DHT22;15182;48.174;11.562;2023-07-31T05:20:19;22.50;87.70
27803;DHT22;15182;48.174;11.562;2023-07-31T05:22:47;22.50;87.90
27803;DHT22;15182;48.174;11.562;2023-07-31T05:25:16;22.50;88.00
27803;DHT22;15182;48.174;11.562;2023-07-31T05:27:44;22.50;88.10
27803;DHT22;15182;48.174;11.562;2023-07-31T05:30:12;22.50;88.10
27803;DHT22;15182;48.174;11.562;2023-07-31T05:32:40;22.50;88.20
27803;DHT22;15182;48.174;11.562;2023-07-31T05:35:08;22.50;88.20
27803;DHT22;15182;48.174;11.562;2023-07-31T05:37:36;22.50;88.20
27803;DHT22;15182;48.174;11.562;2023-07-31T05:40:05;22.50;89.10
27803;DHT22;15182;48.174;11.562;2023-07-31T05:42:34;22.50;88.30
27803;DHT22;15182;48.174;11.562;2023-07-31T05:45:06;22.50;88.30
27803;DHT22;15182;48.174;11.562;2023-07-31T05:47:34;22.50;88.40
27803;DHT22;15182;48.174;11.562;2023-07-31T05:50:02;22.50;88.20
27803;DHT22;15182;48.174;11.562;2023-07-31T05:52:30;22.50;88.10
27803;DHT22;15182;48.174;11.562;2023-07-31T05:54:57;22.50;87.90
27803;DHT22;15182;48.174;11.562;2023-07-31T05:57:25;22.50;87.80
27803;DHT22;15182;48.174;11.562;2023-07-31T05:59:54;22.50;87.80
27803;DHT22;15182;48.174;11.562;2023-07-31T06:02:22;22.50;87.80
27803;DHT22;15182;48.174;11.562;2023-07-31T06:04:50;22.50;87.80
27803;DHT22;15182;48.174;11.562;2023-07-31T06:07:18;22.50;87.80
27803;DHT22;15182;48.174;11.562;2023-07-31T06:09:45;22.50;87.50
27803;DHT22;15182;48.174;11.562;2023-07-31T06:12:13;22.50;87.70
27803;DHT22;15182;48.174;11.562;2023-07-31T06:14:44;22.50;87.70
27803;DHT22;15182;48.174;11.562;2023-07-31T06:17:13;22.50;87.80
27803;DHT22;15182;48.174;11.562;2023-07-31T06:19:41;22.60;88.20
27803;DHT22;15182;48.174;11.562;2023-07-31T06:22:08;22.60;87.70
27803;DHT22;15182;48.174;11.562;2023-07-31T06:24:36;22.60;87.70
27803;DHT22;15182;48.174;11.562;2023-07-31T06:27:05;22.60;87.50
27803;DHT22;15182;48.174;11.562;2023-07-31T06:29:33;22.60;87.60
27803;DHT22;15182;48.174;11.562;2023-07-31T06:32:01;22.70;87.70
27803;DHT22;15182;48.174;11.562;2023-07-31T06:34:30;22.70;87.50
27803;DHT22;15182;48.174;11.562;2023-07-31T06:36:58;22.70;87.30
27803;DHT22;15182;48.174;11.562;2023-07-31T06:39:25;22.70;87.30
27803;DHT22;15182;48.174;11.562;2023-07-31T06:41:53;22.70;87.10
27803;DHT22;15182;48.174;11.562;2023-07-31T06:44:21;22.80;87.30
27803;DHT22;15182;48.174;11.562;2023-07-31T06:46:49;22.80;88.20
27803;DHT22;15182;48.174;11.562;2023-07-31T06:49:16;22.80;87.40
27803;DHT22;15182;48.174;11.562;2023-07-31T06:51:45;22.80;87.20
27803;DHT22;15182;48.174;11.562;2023-07-31T06:54:13;22.80;88.00
27803;DHT22;15182;48.174;11.562;2023-07-31T06:56:41;22.80;87.20
27803;DHT22;15182;48.174;11.562;2023-07-31T06:59:09;22.90;87.30
27803;DHT22;15182;48.174;11.562;2023-07-31T07:01:36;22.90;87.30
27803;DHT22;15182;48.174;11.562;2023-07-31T07:04:04;22.90;87.30
27803;DHT22;15182;48.174;11.562;2023-07-31T07:06:32;22.90;86.90
27803;DHT22;15182;48.174;11.562;2023-07-31T07:09:01;23.00;87.00
27803;DHT22;15182;48.174;11.562;2023-07-31T07:11:29;23.00;87.00
27803;DHT22;15182;48.174;11.562;2023-07-31T07:13:57;23.00;86.70
27803;DHT22;15182;48.174;11.562;2023-07-31T07:16:25;23.00;86.70
27803;DHT22;15182;48.174;11.562;2023-07-31T07:18:53;23.00;86.60
27803;DHT22;15182;48.174;11.562;2023-07-31T07:21:20;23.00;86.70
27803;DHT22;15182;48.174;11.562;2023-07-31T07:23:49;23.00;86.60
27803;DHT22;15182;48.174;11.562;2023-07-31T07:26:18;23.00;86.80
27803;DHT22;15182;48.174;11.562;2023-07-31T07:28:45;23.10;87.40
27803;DHT22;15182;48.174;11.562;2023-07-31T07:31:13;23.10;87.20
27803;DHT22;15182;48.174;11.562;2023-07-31T07:33:41;23.20;88.10
27803;DHT22;15182;48.174;11.562;2023-07-31T07:36:09;23.20;87.10
27803;DHT22;15182;48.174;11.562;2023-07-31T07:38:39;23.30;87.10
27803;DHT22;15182;48.174;11.562;2023-07-31T07:41:07;23.30;86.90
27803;DHT22;15182;48.174;11.562;2023-07-31T07:43:36;23.40;86.90
27803;DHT22;15182;48.174;11.562;2023-07-31T07:46:04;23.40;86.80
27803;DHT22;15182;48.174;11.562;2023-07-31T07:48:32;23.50;87.10
27803;DHT22;15182;48.174;11.562;2023-07-31T07:51:00;23.60;87.20
27803;DHT22;15182;48.174;11.562;2023-07-31T07:53:27;23.70;87.30
27803;DHT22;15182;48.174;11.562;2023-07-31T07:55:55;23.80;87.60
27803;DHT22;15182;48.174;11.562;2023-07-31T07:58:23;23.90;86.40
27803;DHT22;15182;48.174;11.562;2023-07-31T08:00:53;24.00;85.90
27803;DHT22;15182;48.174;11.562;2023-07-31T08:03:21;24.10;85.60
27803;DHT22;15182;48.174;11.562;2023-07-31T08:05:49;24.10;85.20
27803;DHT22;15182;48.174;11.562;2023-07-31T08:08:17;24.10;84.80
27803;DHT22;15182;48.174;11.562;2023-07-31T08:10:44;24.10;84.40
27803;DHT22;15182;48.174;11.562;2023-07-31T08:13:12;24.10;84.20
27803;DHT22;15182;48.174;11.562;2023-07-31T08:15:41;24.10;84.50
27803;DHT22;15182;48.174;11.562;2023-07-31T08:18:10;24.10;84.40
27803;DHT22;15182;48.174;11.562;2023-07-31T08:20:38;24.10;85.60
27803;DHT22;15182;48.174;11.562;2023-07-31T08:23:06;24.20;86.00
27803;DHT22;15182;48.174;11.562;2023-07-31T08:25:34;24.30;84.90
27803;DHT22;15182;48.174;11.562;2023-07-31T08:28:02;24.30;84.40
27803;DHT22;15182;48.174;11.562;2023-07-31T08:30:30;24.40;84.20
27803;DHT22;15182;48.174;11.562;2023-07-31T08:32:58;24.50;84.50
27803;DHT22;15182;48.174;11.562;2023-07-31T08:35:28;24.50;84.00
27803;DHT22;15182;48.174;11.562;2023-07-31T08:37:55;24.60;84.10
27803;DHT22;15182;48.174;11.562;2023-07-31T08:40:23;24.60;83.20
27803;DHT22;15182;48.174;11.562;2023-07-31T08:42:54;24.60;82.50
27803;DHT22;15182;48.174;11.562;2023-07-31T08:45:28;24.60;82.20
27803;DHT22;15182;48.174;11.562;2023-07-31T08:47:56;24.60;82.20
27803;DHT22;15182;48.174;11.562;2023-07-31T08:50:24;24.60;81.70
27803;DHT22;15182;48.174;11.562;2023-07-31T08:52:53;24.50;81.20
27803;DHT22;15182;48.174;11.562;2023-07-31T08:55:21;24.50;81.80
27803;DHT22;15182;48.174;11.562;2023-07-31T08:57:51;24.40;80.80
27803;DHT22;15182;48.174;11.562;2023-07-31T09:00:20;24.40;80.80
27803;DHT22;15182;48.174;11.562;2023-07-31T09:02:54;24.30;81.90
27803;DHT22;15182;48.174;11.562;2023-07-31T09:05:26;24.30;81.00
27803;DHT22;15182;48.174;11.562;2023-07-31T09:07:56;24.20;81.40
27803;DHT22;15182;48.174;11.562;2023-07-31T09:10:25;24.20;81.60
27803;DHT22;15182;48.174;11.562;2023-07-31T09:12:53;24.20;81.70
27803;DHT22;15182;48.174;11.562;2023-07-31T09:15:22;24.20;81.90
27803;DHT22;15182;48.174;11.562;2023-07-31T09:17:59;24.20;82.40
27803;DHT22;15182;48.174;11.562;2023-07-31T09:20:27;24.20;81.90
27803;DHT22;15182;48.174;11.562;2023-07-31T09:22:57;24.30;81.80
27803;DHT22;15182;48.174;11.562;2023-07-31T09:25:32;24.40;81.20
27803;DHT22;15182;48.174;11.562;2023-07-31T09:28:02;24.40;81.00
27803;DHT22;15182;48.174;11.562;2023-07-31T09:30:32;24.50;80.80
27803;DHT22;15182;48.174;11.562;2023-07-31T09:33:12;24.50;80.90
27803;DHT22;15182;48.174;11.562;2023-07-31T09:35:39;24.60;81.20
27803;DHT22;15182;48.174;11.562;2023-07-31T09:38:10;24.60;81.00
27803;DHT22;15182;48.174;11.562;2023-07-31T09:40:40;24.70;82.00
27803;DHT22;15182;48.174;11.562;2023-07-31T09:43:11;24.70;80.90
27803;DHT22;15182;48.174;11.562;2023-07-31T09:45:41;24.80;80.50
27803;DHT22;15182;48.174;11.562;2023-07-31T09:48:10;24.80;80.50
27803;DHT22;15182;48.174;11.562;2023-07-31T09:50:41;24.90;80.20
27803;DHT22;15182;48.174;11.562;2023-07-31T09:53:11;25.00;80.30
27803;DHT22;15182;48.174;11.562;2023-07-31T09:55:40;25.10;80.60
27803;DHT22;15182;48.174;11.562;2023-07-31T09:58:10;25.20;80.00
27803;DHT22;15182;48.174;11.562;2023-07-31T10:00:38;25.40;79.80
27803;DHT22;15182;48.174;11.562;2023-07-31T10:03:08;25.50;79.60
27803;DHT22;15182;48.174;11.562;2023-07-31T10:05:40;25.70;79.00
27803;DHT22;15182;48.174;11.562;2023-07-31T10:08:13;25.80;79.30
27803;DHT22;15182;48.174;11.562;2023-07-31T10:10:43;26.00;78.40
27803;DHT22;15182;48.174;11.562;2023-07-31T10:13:12;26.10;78.40
27803;DHT22;15182;48.174;11.562;2023-07-31T10:15:41;26.20;77.90
27803;DHT22;15182;48.174;11.562;2023-07-31T10:18:10;26.30;77.60
27803;DHT22;15182;48.174;11.562;2023-07-31T10:20:39;26.40;77.60
27803;DHT22;15182;48.174;11.562;2023-07-31T10:23:08;26.50;77.00
27803;DHT22;15182;48.174;11.562;2023-07-31T10:25:38;26.60;76.90
27803;DHT22;15182;48.174;11.562;2023-07-31T10:28:06;26.70;76.20
27803;DHT22;15182;48.174;11.562;2023-07-31T10:30:35;26.70;76.70
27803;DHT22;15182;48.174;11.562;2023-07-31T10:33:05;26.80;76.50
27803;DHT22;15182;48.174;11.562;2023-07-31T10:35:33;26.80;77.10
27803;DHT22;15182;48.174;11.562;2023-07-31T10:38:09;26.90;76.00
27803;DHT22;15182;48.174;11.562;2023-07-31T10:40:40;26.90;74.70
27803;DHT22;15182;48.174;11.562;2023-07-31T10:43:08;26.90;74.80
27803;DHT22;15182;48.174;11.562;2023-07-31T10:45:38;26.80;75.10
27803;DHT22;15182;48.174;11.562;2023-07-31T10:48:12;26.80;75.20
27803;DHT22;15182;48.174;11.562;2023-07-31T10:50:47;26.80;75.70
27803;DHT22;15182;48.174;11.562;2023-07-31T10:53:23;26.70;75.10
27803;DHT22;15182;48.174;11.562;2023-07-31T10:55:58;26.70;74.40
27803;DHT22;15182;48.174;11.562;2023-07-31T10:58:26;26.70;74.10
27803;DHT22;15182;48.174;11.562;2023-07-31T11:00:56;26.60;75.20
27803;DHT22;15182;48.174;11.562;2023-07-31T11:03:26;26.70;75.60
27803;DHT22;15182;48.174;11.562;2023-07-31T11:06:00;26.80;75.30
27803;DHT22;15182;48.174;11.562;2023-07-31T11:08:30;27.00;74.70
27803;DHT22;15182;48.174;11.562;2023-07-31T11:11:08;27.10;74.20
27803;DHT22;15182;48.174;11.562;2023-07-31T11:13:42;27.20;74.60
27803;DHT22;15182;48.174;11.562;2023-07-31T11:16:11;27.40;75.20
27803;DHT22;15182;48.174;11.562;2023-07-31T11:18:40;27.60;74.50
27803;DHT22;15182;48.174;11.562;2023-07-31T11:21:11;27.80;73.50
27803;DHT22;15182;48.174;11.562;2023-07-31T11:23:39;28.00;73.00
27803;DHT22;15182;48.174;11.562;2023-07-31T11:26:08;28.00;72.60
27803;DHT22;15182;48.174;11.562;2023-07-31T11:28:36;28.10;72.40
27803;DHT22;15182;48.174;11.562;2023-07-31T11:31:04;28.10;72.50
27803;DHT22;15182;48.174;11.562;2023-07-31T11:33:36;28.10;72.10
27803;DHT22;15182;48.174;11.562;2023-07-31T11:36:04;28.10;72.00
27803;DHT22;15182;48.174;11.562;2023-07-31T11:38:33;28.10;71.80
27803;DHT22;15182;48.174;11.562;2023-07-31T11:41:03;28.10;71.90
27803;DHT22;15182;48.174;11.562;2023-07-31T11:43:32;28.10;71.40
27803;DHT22;15182;48.174;11.562;2023-07-31T11:46:03;28.10;70.30
27803;DHT22;15182;48.174;11.562;2023-07-31T11:48:34;28.10;70.50
27803;DHT22;15182;48.174;11.562;2023-07-31T11:51:05;28.20;70.70
27803;DHT22;15182;48.174;11.562;2023-07-31T11:53:38;28.20;70.90
27803;DHT22;15182;48.174;11.562;2023-07-31T11:56:11;28.40;70.30
27803;DHT22;15182;48.174;11.562;2023-07-31T11:58:43;28.50;70.40
27803;DHT22;15182;48.174;11.562;2023-07-31T12:01:14;28.70;69.80
27803;DHT22;15182;48.174;11.562;2023-07-31T12:03:43;28.80;69.50
27803;DHT22;15182;48.174;11.562;2023-07-31T12:06:11;28.90;69.70
27803;DHT22;15182;48.174;11.562;2023-07-31T12:08:39;29.00;70.00
27803;DHT22;15182;48.174;11.562;2023-07-31T12:11:08;29.10;69.50
27803;DHT22;15182;48.174;11.562;2023-07-31T12:13:37;29.20;69.10
27803;DHT22;15182;48.174;11.562;2023-07-31T12:16:06;29.30;69.30
27803;DHT22;15182;48.174;11.562;2023-07-31T12:18:35;29.30;68.50
27803;DHT22;15182;48.174;11.562;2023-07-31T12:21:05;29.40;68.30
27803;DHT22;15182;48.174;11.562;2023-07-31T12:23:36;29.50;67.60
27803;DHT22;15182;48.174;11.562;2023-07-31T12:26:05;29.50;68.40
27803;DHT22;15182;48.174;11.562;2023-07-31T12:28:38;29.60;68.00
27803;DHT22;15182;48.174;11.562;2023-07-31T12:31:10;29.60;67.20
27803;DHT22;15182;48.174;11.562;2023-07-31T12:33:39;29.60;67.20
27803;DHT22;15182;48.174;11.562;2023-07-31T12:36:09;29.60;67.80
27803;DHT22;15182;48.174;11.562;2023-07-31T12:38:38;29.60;66.90
27803;DHT22;15182;48.174;11.562;2023-07-31T12:41:05;29.50;67.00
27803;DHT22;15182;48.174;11.562;2023-07-31T12:43:33;29.50;66.30
27803;DHT22;15182;48.174;11.562;2023-07-31T12:46:01;29.50;66.50
27803;DHT22;15182;48.174;11.562;2023-07-31T12:48:31;29.50;65.90
27803;DHT22;15182;48.174;11.562;2023-07-31T12:50:59;29.50;66.10
27803;DHT22;15182;48.174;11.562;2023-07-31T12:53:27;29.50;66.50
27803;DHT22;15182;48.174;11.562;2023-07-31T12:55:55;29.50;66.40
27803;DHT22;15182;48.174;11.562;2023-07-31T12:58:23;29.60;65.70
27803;DHT22;15182;48.174;11.562;2023-07-31T13:00:51;29.60;65.70
27803;DHT22;15182;48.174;11.562;2023-07-31T13:03:19;29.70;66.10
27803;DHT22;15182;48.174;11.562;2023-07-31T13:05:48;29.70;65.90
27803;DHT22;15182;48.174;11.562;2023-07-31T13:08:16;29.70;65.40
27803;DHT22;15182;48.174;11.562;2023-07-31T13:10:44;29.70;65.60
27803;DHT22;15182;48.174;11.562;2023-07-31T13:13:12;29.60;65.90
27803;DHT22;15182;48.174;11.562;2023-07-31T13:15:39;29.50;65.90
27803;DHT22;15182;48.174;11.562;2023-07-31T13:18:07;29.50;65.60
27803;DHT22;15182;48.174;11.562;2023-07-31T13:20:35;29.50;65.60
27803;DHT22;15182;48.174;11.562;2023-07-31T13:23:04;29.50;65.60
27803;DHT22;15182;48.174;11.562;2023-07-31T13:25:32;29.50;65.80
27803;DHT22;15182;48.174;11.562;2023-07-31T13:28:00;29.40;66.00
27803;DHT22;15182;48.174;11.562;2023-07-31T13:30:27;29.40;65.70
27803;DHT22;15182;48.174;11.562;2023-07-31T13:32:55;29.30;65.50
27803;DHT22;15182;48.174;11.562;2023-07-31T13:35:23;29.30;65.90
27803;DHT22;15182;48.174;11.562;2023-07-31T13:37:51;29.30;66.20
27803;DHT22;15182;48.174;11.562;2023-07-31T13:40:20;29.20;65.70
27803;DHT22;15182;48.174;11.562;2023-07-31T13:42:48;29.20;66.30
27803;DHT22;15182;48.174;11.562;2023-07-31T13:45:15;29.20;66.30
27803;DHT22;15182;48.174;11.562;2023-07-31T13:47:43;29.20;66.10
27803;DHT22;15182;48.174;11.562;2023-07-31T13:50:11;29.30;65.60
27803;DHT22;15182;48.174;11.562;2023-07-31T13:52:39;29.40;64.80
27803;DHT22;15182;48.174;11.562;2023-07-31T13:55:07;29.40;64.40
27803;DHT22;15182;48.174;11.562;2023-07-31T13:57:36;29.40;64.10
27803;DHT22;15182;48.174;11.562;2023-07-31T14:00:06;29.40;64.20
27803;DHT22;15182;48.174;11.562;2023-07-31T14:02:35;29.30;64.00
27803;DHT22;15182;48.174;11.562;2023-07-31T14:05:03;29.30;64.20
27803;DHT22;15182;48.174;11.562;2023-07-31T14:07:32;29.30;64.40
27803;DHT22;15182;48.174;11.562;2023-07-31T14:10:00;29.20;64.10
27803;DHT22;15182;48.174;11.562;2023-07-31T14:12:27;29.10;64.60
27803;DHT22;15182;48.174;11.562;2023-07-31T14:14:56;29.00;64.60
27803;DHT22;15182;48.174;11.562;2023-07-31T14:17:24;29.00;64.70
27803;DHT22;15182;48.174;11.562;2023-07-31T14:19:52;28.90;64.50
27803;DHT22;15182;48.174;11.562;2023-07-31T14:22:27;28.90;64.90
27803;DHT22;15182;48.174;11.562;2023-07-31T14:24:56;28.80;65.10
27803;DHT22;15182;48.174;11.562;2023-07-31T14:27:24;28.90;65.70
27803;DHT22;15182;48.174;11.562;2023-07-31T14:29:51;28.90;65.90
27803;DHT22;15182;48.174;11.562;2023-07-31T14:32:20;28.90;65.70
27803;DHT22;15182;48.174;11.562;2023-07-31T14:34:52;28.90;65.30
27803;DHT22;15182;48.174;11.562;2023-07-31T14:37:21;28.90;65.10
27803;DHT22;15182;48.174;11.562;2023-07-31T14:39:48;28.80;65.60
27803;DHT22;15182;48.174;11.562;2023-07-31T14:42:17;28.80;65.50
27803;DHT22;15182;48.174;11.562;2023-07-31T14:44:45;28.90;65.50
27803;DHT22;15182;48.174;11.562;2023-07-31T14:47:13;28.90;65.50
27803;DHT22;15182;48.174;11.562;2023-07-31T14:49:42;28.90;65.40
27803;DHT22;15182;48.174;11.562;2023-07-31T14:52:10;28.90;65.20
27803;DHT22;15182;48.174;11.562;2023-07-31T14:54:38;28.90;65.70
27803;DHT22;15182;48.174;11.562;2023-07-31T14:57:06;28.90;65.60
27803;DHT22;15182;48.174;11.562;2023-07-31T14:59:34;28.90;65.20
27803;DHT22;15182;48.174;11.562;2023-07-31T15:02:02;28.90;65.30
27803;DHT22;15182;48.174;11.562;2023-07-31T15:04:30;28.90;64.90
27803;DHT22;15182;48.174;11.562;2023-07-31T15:06:59;28.90;65.40
27803;DHT22;15182;48.174;11.562;2023-07-31T15:09:27;28.90;64.30
27803;DHT22;15182;48.174;11.562;2023-07-31T15:11:56;28.90;64.50
27803;DHT22;15182;48.174;11.562;2023-07-31T15:14:24;28.80;63.80
27803;DHT22;15182;48.174;11.562;2023-07-31T15:16:53;28.70;63.60
27803;DHT22;15182;48.174;11.562;2023-07-31T15:19:21;28.70;64.00
27803;DHT22;15182;48.174;11.562;2023-07-31T15:21:49;28.60;64.40
27803;DHT22;15182;48.174;11.562;2023-07-31T15:24:19;28.50;64.60
27803;DHT22;15182;48.174;11.562;2023-07-31T15:26:46;28.40;64.60